createdAt,value
2022-10-06T00:02:19.998Z,11.70
2022-10-06T00:04:47.427Z,11.70
2022-10-06T00:07:14.609Z,11.70
2022-10-06T00:09:41.672Z,11.70
2022-10-06T00:12:09.017Z,11.60
2022-10-06T00:14:35.972Z,11.60
2022-10-06T00:17:02.940Z,11.60
2022-10-06T00:19:30.260Z,11.60
2022-10-06T00:21:57.207Z,11.60
2022-10-06T00:24:24.902Z,11.60
2022-10-06T00:26:51.802Z,11.50
2022-10-06T00:29:18.872Z,11.50
2022-10-06T00:31:46.123Z,11.50
2022-10-06T00:34:13.078Z,11.50
2022-10-06T00:36:40.169Z,11.50
2022-10-06T00:39:06.894Z,11.40
2022-10-06T00:41:33.796Z,11.40
2022-10-06T00:44:00.532Z,11.40
2022-10-06T00:46:34.166Z,11.40
2022-10-06T00:49:04.195Z,11.40
2022-10-06T00:51:31.076Z,11.40
2022-10-06T00:53:58.103Z,11.30
2022-10-06T00:56:25.178Z,11.20
2022-10-06T00:58:52.122Z,11.20
2022-10-06T01:01:19.469Z,11.20
2022-10-06T01:03:50.876Z,11.10
2022-10-06T01:06:17.498Z,11.10
2022-10-06T01:08:44.790Z,11.10
2022-10-06T01:11:14.518Z,11.10
2022-10-06T01:13:43.695Z,11.00
2022-10-06T01:16:12.184Z,11.00
2022-10-06T01:18:38.874Z,11.00
2022-10-06T01:21:07.242Z,11.00
2022-10-06T01:23:34.409Z,10.90
2022-10-06T01:26:01.478Z,10.90
2022-10-06T01:28:28.515Z,10.90
2022-10-06T01:30:56.574Z,10.90
2022-10-06T01:33:23.392Z,10.80
2022-10-06T01:35:53.273Z,10.80
2022-10-06T01:38:20.308Z,10.80
2022-10-06T01:40:46.958Z,10.70
2022-10-06T01:43:13.724Z,10.70
2022-10-06T01:45:40.389Z,10.70
2022-10-06T01:48:07.661Z,10.70
2022-10-06T01:50:34.266Z,10.60
2022-10-06T01:53:01.051Z,10.60
2022-10-06T01:55:27.715Z,10.60
2022-10-06T01:57:54.472Z,10.60
2022-10-06T02:00:21.234Z,10.60
2022-10-06T02:02:47.898Z,10.60
2022-10-06T02:05:15.688Z,10.50
2022-10-06T02:07:42.363Z,10.50
2022-10-06T02:10:09.168Z,10.50
2022-10-06T02:12:35.792Z,10.40
2022-10-06T02:15:02.383Z,10.50
2022-10-06T02:17:29.407Z,10.40
2022-10-06T02:19:56.128Z,10.40
2022-10-06T02:22:22.770Z,10.30
2022-10-06T02:24:49.466Z,10.30
2022-10-06T02:27:16.167Z,10.30
2022-10-06T02:29:42.854Z,10.30
2022-10-06T02:32:10.126Z,10.30
2022-10-06T02:34:36.848Z,10.30
2022-10-06T02:37:03.528Z,10.30
2022-10-06T02:39:30.193Z,10.50
2022-10-06T02:41:56.890Z,10.30
2022-10-06T02:44:25.140Z,10.30
2022-10-06T02:46:52.729Z,10.30
2022-10-06T02:49:19.826Z,10.30
2022-10-06T02:51:46.744Z,10.30
2022-10-06T02:54:13.506Z,10.30
2022-10-06T02:56:40.199Z,10.30
2022-10-06T02:59:06.953Z,10.30
2022-10-06T03:01:33.649Z,10.30
2022-10-06T03:04:00.548Z,10.30
2022-10-06T03:06:30.943Z,10.30
2022-10-06T03:08:58.528Z,10.20
2022-10-06T03:11:35.092Z,10.30
2022-10-06T03:14:01.834Z,10.20
2022-10-06T03:16:32.415Z,10.20
2022-10-06T03:18:59.204Z,10.20
2022-10-06T03:21:26.646Z,10.20
2022-10-06T03:23:53.646Z,10.20
2022-10-06T03:26:23.290Z,10.20
2022-10-06T03:28:49.961Z,10.10
2022-10-06T03:31:18.054Z,10.20
2022-10-06T03:33:44.744Z,10.20
2022-10-06T03:36:12.198Z,10.20
2022-10-06T03:38:39.830Z,10.10
2022-10-06T03:41:07.619Z,10.10
2022-10-06T03:43:34.609Z,10.20
2022-10-06T03:46:01.405Z,10.10
2022-10-06T03:48:32.287Z,10.10
2022-10-06T03:51:03.166Z,10.10
2022-10-06T03:53:30.032Z,10.10
2022-10-06T03:56:00.833Z,10.00
2022-10-06T03:58:28.492Z,10.00
2022-10-06T04:01:14.103Z,10.00
2022-10-06T04:03:40.788Z,10.00
2022-10-06T04:06:08.023Z,10.00
2022-10-06T04:08:34.871Z,9.90
2022-10-06T04:11:05.533Z,9.90
2022-10-06T04:13:32.174Z,9.80
2022-10-06T04:15:58.885Z,9.80
2022-10-06T04:18:25.712Z,9.80
2022-10-06T04:20:58.990Z,9.70
2022-10-06T04:23:25.629Z,9.70
2022-10-06T04:25:58.060Z,9.60
2022-10-06T04:28:24.850Z,9.60
2022-10-06T04:31:00.950Z,9.60
2022-10-06T04:33:27.785Z,9.50
2022-10-06T04:36:01.251Z,9.50
2022-10-06T04:38:29.851Z,9.50
2022-10-06T04:40:57.422Z,9.40
2022-10-06T04:43:24.827Z,9.40
2022-10-06T04:45:58.517Z,9.40
2022-10-06T04:48:28.617Z,9.40
2022-10-06T04:50:56.523Z,9.40
2022-10-06T04:53:23.217Z,9.40
2022-10-06T04:55:57.940Z,9.40
2022-10-06T04:58:24.573Z,9.40
2022-10-06T05:00:51.313Z,9.40
2022-10-06T05:03:18.103Z,9.40
2022-10-06T05:05:44.805Z,9.40
2022-10-06T05:08:11.488Z,9.40
2022-10-06T05:10:38.173Z,9.40
2022-10-06T05:13:06.160Z,9.40
2022-10-06T05:15:32.864Z,9.40
2022-10-06T05:17:59.803Z,9.40
2022-10-06T05:20:26.537Z,9.50
2022-10-06T05:22:53.313Z,9.40
2022-10-06T05:25:20.620Z,9.50
2022-10-06T05:27:47.665Z,9.50
2022-10-06T05:30:14.406Z,9.50
2022-10-06T05:32:41.261Z,9.40
2022-10-06T05:35:08.124Z,9.40
2022-10-06T05:37:34.831Z,9.50
2022-10-06T05:40:01.468Z,9.50
2022-10-06T05:42:29.771Z,9.40
2022-10-06T05:44:56.809Z,9.40
2022-10-06T05:47:23.466Z,9.30
2022-10-06T05:49:50.421Z,9.30
2022-10-06T05:52:17.678Z,9.30
2022-10-06T05:54:44.534Z,9.20
2022-10-06T05:57:11.230Z,9.20
2022-10-06T05:59:38.197Z,9.20
2022-10-06T06:02:05.043Z,9.10
2022-10-06T06:04:31.959Z,9.10
2022-10-06T06:06:58.604Z,9.10
2022-10-06T06:09:26.403Z,9.10
2022-10-06T06:11:53.118Z,9.10
2022-10-06T06:14:40.351Z,9.20
2022-10-06T06:17:07.313Z,9.20
2022-10-06T06:19:33.975Z,9.20
2022-10-06T06:22:00.772Z,9.20
2022-10-06T06:24:27.969Z,9.30
2022-10-06T06:26:54.607Z,9.30
2022-10-06T06:29:21.236Z,9.40
2022-10-06T06:31:48.587Z,9.40
2022-10-06T06:34:15.481Z,9.40
2022-10-06T06:36:43.445Z,9.50
2022-10-06T06:39:10.581Z,9.50
2022-10-06T06:41:38.285Z,9.50
2022-10-06T06:44:06.751Z,9.60
2022-10-06T06:49:05.715Z,9.60
2022-10-06T06:51:34.602Z,9.60
2022-10-06T06:54:02.510Z,9.70
2022-10-06T06:56:29.670Z,9.70
2022-10-06T06:58:56.328Z,9.70
2022-10-06T07:01:23.272Z,9.80
2022-10-06T07:03:58.068Z,9.80
2022-10-06T07:06:28.543Z,9.90
2022-10-06T07:08:56.186Z,9.90
2022-10-06T07:11:24.062Z,10.00
2022-10-06T07:13:51.498Z,10.00
2022-10-06T07:16:36.963Z,10.10
2022-10-06T07:19:24.793Z,10.20
2022-10-06T07:22:14.501Z,10.30
2022-10-06T07:24:59.874Z,10.40
2022-10-06T07:27:26.509Z,10.50
2022-10-06T07:29:55.354Z,10.60
2022-10-06T07:32:22.820Z,10.70
2022-10-06T07:34:50.062Z,10.80
2022-10-06T07:37:17.260Z,10.90
2022-10-06T07:39:49.976Z,10.90
2022-10-06T07:42:16.952Z,11.10
2022-10-06T07:44:43.916Z,11.20
2022-10-06T07:47:10.574Z,11.30
2022-10-06T07:49:37.232Z,11.40
2022-10-06T07:52:03.868Z,11.50
2022-10-06T07:54:30.891Z,11.70
2022-10-06T07:56:57.529Z,11.80
2022-10-06T07:59:24.271Z,12.00
2022-10-06T08:01:52.609Z,12.10
2022-10-06T08:04:19.264Z,12.30
2022-10-06T08:06:47.671Z,12.40
2022-10-06T08:09:14.343Z,12.60
2022-10-06T08:11:41.040Z,12.80
2022-10-06T08:14:07.809Z,13.00
2022-10-06T08:16:34.485Z,13.20
2022-10-06T08:19:01.185Z,13.40
2022-10-06T08:21:31.420Z,13.60
2022-10-06T08:23:58.390Z,13.80
2022-10-06T08:26:25.672Z,14.10
2022-10-06T08:28:52.852Z,14.20
2022-10-06T08:31:21.334Z,14.40
2022-10-06T08:33:48.271Z,14.70
2022-10-06T08:36:16.768Z,14.90
2022-10-06T08:38:43.438Z,15.00
2022-10-06T08:41:20.108Z,15.20
2022-10-06T08:44:07.041Z,15.40
2022-10-06T08:46:37.823Z,15.60
2022-10-06T08:49:05.876Z,15.90
2022-10-06T08:51:49.370Z,16.10
2022-10-06T08:54:31.927Z,16.30
2022-10-06T08:57:05.271Z,16.40
2022-10-06T08:59:32.944Z,16.60
2022-10-06T09:01:59.899Z,16.70
2022-10-06T09:04:28.747Z,16.70
2022-10-06T09:07:00.051Z,16.70
2022-10-06T09:09:31.231Z,16.50
2022-10-06T09:12:16.763Z,16.30
2022-10-06T09:14:44.389Z,16.10
2022-10-06T09:17:11.927Z,16.00
2022-10-06T09:19:43.343Z,15.80
2022-10-06T09:22:15.623Z,15.70
2022-10-06T09:24:47.471Z,15.70
2022-10-06T09:27:21.738Z,15.60
2022-10-06T09:29:48.699Z,15.50
2022-10-06T09:32:16.130Z,15.50
2022-10-06T09:35:02.631Z,15.50
2022-10-06T09:37:29.261Z,15.40
2022-10-06T09:39:56.205Z,15.50
2022-10-06T09:42:23.149Z,15.50
2022-10-06T09:44:56.891Z,15.50
2022-10-06T09:47:33.168Z,15.60
2022-10-06T09:50:10.202Z,15.60
2022-10-06T09:52:36.819Z,15.70
2022-10-06T09:55:13.720Z,15.70
2022-10-06T09:57:47.885Z,15.70
2022-10-06T10:00:35.814Z,15.80
2022-10-06T10:03:02.945Z,15.80
2022-10-06T10:05:30.530Z,15.80
2022-10-06T10:08:10.151Z,15.90
2022-10-06T10:10:37.185Z,15.90
2022-10-06T10:13:04.069Z,15.90
2022-10-06T10:15:49.116Z,16.00
2022-10-06T10:18:18.346Z,16.00
2022-10-06T10:20:52.409Z,16.00
2022-10-06T10:23:19.003Z,16.10
2022-10-06T10:25:45.788Z,16.10
2022-10-06T10:28:17.471Z,16.10
2022-10-06T10:30:47.257Z,16.20
2022-10-06T10:33:19.043Z,16.20
2022-10-06T10:35:46.550Z,16.20
2022-10-06T10:38:16.807Z,16.30
2022-10-06T10:40:51.539Z,16.40
2022-10-06T10:43:33.639Z,16.50
2022-10-06T10:46:09.440Z,16.60
2022-10-06T10:48:40.040Z,16.70
2022-10-06T10:51:11.363Z,16.90
2022-10-06T10:53:44.011Z,17.10
2022-10-06T10:56:11.912Z,17.50
2022-10-06T10:58:39.095Z,18.00
2022-10-06T11:01:08.859Z,18.50
2022-10-06T11:03:35.584Z,18.90
2022-10-06T11:06:12.494Z,19.40
2022-10-06T11:08:45.210Z,19.70
2022-10-06T11:11:23.486Z,20.10
2022-10-06T11:13:51.352Z,20.50
2022-10-06T11:16:21.001Z,20.80
2022-10-06T11:19:07.239Z,21.10
2022-10-06T11:21:34.702Z,21.40
2022-10-06T11:24:01.528Z,21.60
2022-10-06T11:26:28.239Z,21.70
2022-10-06T11:29:13.684Z,21.70
2022-10-06T11:31:40.558Z,21.80
2022-10-06T11:34:07.651Z,22.00
2022-10-06T11:36:35.010Z,22.30
2022-10-06T11:39:04.668Z,22.60
2022-10-06T11:41:32.482Z,22.90
2022-10-06T11:44:18.022Z,23.10
2022-10-06T11:46:52.706Z,23.40
2022-10-06T11:49:28.533Z,23.50
2022-10-06T11:52:08.586Z,23.70
2022-10-06T11:54:45.580Z,23.80
2022-10-06T11:57:30.223Z,23.80
2022-10-06T12:00:16.447Z,23.70
2022-10-06T12:02:44.024Z,23.30
2022-10-06T12:05:36.361Z,23.10
2022-10-06T12:08:00.266Z,22.90
2022-10-06T12:10:29.953Z,22.40
2022-10-06T12:13:31.762Z,22.00
2022-10-06T12:19:18.742Z,21.90
2022-10-06T12:22:02.609Z,22.30
2022-10-06T12:24:38.604Z,22.70
2022-10-06T12:27:08.031Z,23.10
2022-10-06T12:29:42.638Z,23.40
2022-10-06T12:32:21.468Z,23.60
2022-10-06T12:34:54.347Z,23.60
2022-10-06T12:37:33.532Z,23.50
2022-10-06T12:40:19.287Z,23.60
2022-10-06T12:42:46.009Z,23.70
2022-10-06T12:45:14.146Z,23.60
2022-10-06T12:47:41.932Z,23.40
2022-10-06T12:50:12.286Z,23.10
2022-10-06T12:52:52.306Z,23.00
2022-10-06T12:55:37.987Z,22.80
2022-10-06T12:58:04.752Z,22.40
2022-10-06T13:00:31.414Z,22.10
2022-10-06T13:02:58.499Z,22.10
2022-10-06T13:05:25.336Z,22.30
2022-10-06T13:08:22.442Z,22.50
2022-10-06T13:10:49.079Z,22.70
2022-10-06T13:13:19.616Z,23.00
2022-10-06T13:15:46.346Z,23.20
2022-10-06T13:18:13.523Z,23.40
2022-10-06T13:20:47.931Z,23.40
2022-10-06T13:23:23.692Z,23.40
2022-10-06T13:25:53.066Z,23.50
2022-10-06T13:28:25.757Z,23.50
2022-10-06T13:30:52.603Z,23.50
2022-10-06T13:33:19.285Z,23.60
2022-10-06T13:35:46.479Z,23.70
2022-10-06T13:38:13.217Z,23.70
2022-10-06T13:40:44.728Z,23.70
2022-10-06T13:43:15.902Z,23.70
2022-10-06T13:45:42.716Z,23.50
2022-10-06T13:48:15.136Z,23.40
2022-10-06T13:50:46.130Z,23.00
2022-10-06T13:53:26.692Z,22.50
2022-10-06T13:55:53.341Z,22.20
2022-10-06T13:58:20.452Z,21.80
2022-10-06T14:00:47.129Z,21.50
2022-10-06T14:03:21.066Z,21.40
2022-10-06T14:05:48.571Z,21.50
2022-10-06T14:08:25.256Z,21.60
2022-10-06T14:11:00.188Z,21.70
2022-10-06T14:13:28.320Z,21.90
2022-10-06T14:15:58.071Z,21.90
2022-10-06T14:18:44.169Z,22.10
2022-10-06T14:21:30.286Z,22.40
2022-10-06T14:23:57.035Z,22.70
2022-10-06T14:26:27.671Z,22.50
2022-10-06T14:28:54.386Z,22.20
2022-10-06T14:31:21.410Z,21.80
2022-10-06T14:33:48.820Z,21.50
2022-10-06T14:36:16.400Z,21.40
2022-10-06T14:38:43.228Z,21.40
2022-10-06T14:41:09.831Z,21.30
2022-10-06T14:43:36.741Z,21.20
2022-10-06T14:46:06.293Z,21.00
2022-10-06T14:48:33.209Z,20.70
2022-10-06T14:51:02.116Z,20.50
2022-10-06T14:53:29.159Z,20.40
2022-10-06T14:56:01.004Z,20.10
2022-10-06T14:58:27.629Z,20.00
2022-10-06T15:00:54.299Z,19.80
2022-10-06T15:03:21.165Z,19.70
2022-10-06T15:06:08.170Z,19.90
2022-10-06T15:08:34.859Z,19.50
2022-10-06T15:11:01.686Z,19.50
2022-10-06T15:13:29.678Z,19.60
2022-10-06T15:15:59.677Z,19.60
2022-10-06T15:18:26.359Z,19.50
2022-10-06T15:20:53.134Z,19.30
2022-10-06T15:23:19.954Z,19.20
2022-10-06T15:26:11.493Z,19.10
2022-10-06T15:28:56.840Z,19.10
2022-10-06T15:31:24.065Z,19.10
2022-10-06T15:33:53.239Z,19.20
2022-10-06T15:36:20.887Z,19.30
2022-10-06T15:38:47.629Z,19.30
2022-10-06T15:41:14.307Z,19.40
2022-10-06T15:43:56.330Z,19.40
2022-10-06T15:46:26.173Z,19.30
2022-10-06T15:48:58.940Z,19.20
2022-10-06T15:51:25.757Z,19.10
2022-10-06T15:53:52.515Z,19.00
2022-10-06T15:56:19.280Z,19.00
2022-10-06T15:58:45.962Z,19.00
2022-10-06T16:01:25.883Z,18.90
2022-10-06T16:03:53.447Z,18.90
2022-10-06T16:06:40.125Z,18.80
2022-10-06T16:09:08.190Z,18.80
2022-10-06T16:11:34.910Z,18.70
2022-10-06T16:14:01.610Z,18.70
2022-10-06T16:16:28.560Z,18.60
2022-10-06T16:18:55.441Z,18.50
2022-10-06T16:21:22.184Z,18.40
2022-10-06T16:23:51.016Z,18.40
2022-10-06T16:26:17.823Z,18.30
2022-10-06T16:28:45.419Z,18.20
2022-10-06T16:31:12.278Z,18.20
2022-10-06T16:33:39.181Z,18.00
2022-10-06T16:36:06.122Z,18.20
2022-10-06T16:38:32.950Z,18.20
2022-10-06T16:41:03.025Z,18.20
2022-10-06T16:43:33.363Z,18.30
2022-10-06T16:46:10.075Z,18.40
2022-10-06T16:48:37.629Z,18.40
2022-10-06T16:51:08.150Z,18.40
2022-10-06T16:53:58.147Z,18.30
2022-10-06T16:56:24.954Z,18.20
2022-10-06T16:58:55.119Z,18.00
2022-10-06T17:01:25.446Z,17.90
2022-10-06T17:03:58.788Z,17.80
2022-10-06T17:06:25.750Z,17.60
2022-10-06T17:08:52.686Z,17.50
2022-10-06T17:11:24.013Z,17.50
2022-10-06T17:13:55.006Z,17.30
2022-10-06T17:16:26.077Z,17.20
2022-10-06T17:18:53.233Z,17.10
2022-10-06T17:21:44.305Z,17.00
2022-10-06T17:24:07.359Z,17.00
2022-10-06T17:26:36.887Z,16.90
2022-10-06T17:29:05.858Z,16.80
2022-10-06T17:31:36.298Z,16.70
2022-10-06T17:34:03.857Z,16.70
2022-10-06T17:36:30.853Z,16.60
2022-10-06T17:39:01.550Z,16.50
2022-10-06T17:41:32.677Z,16.40
2022-10-06T17:44:03.164Z,16.40
2022-10-06T17:46:30.672Z,16.30
2022-10-06T17:48:57.425Z,16.20
2022-10-06T17:51:24.591Z,16.20
2022-10-06T17:53:52.022Z,16.10
2022-10-06T17:56:19.727Z,16.10
2022-10-06T17:58:54.879Z,16.00
2022-10-06T18:01:22.192Z,16.00
2022-10-06T18:03:49.389Z,15.90
2022-10-06T18:06:23.036Z,15.90
2022-10-06T18:08:52.663Z,15.80
2022-10-06T18:11:41.143Z,15.80
2022-10-06T18:14:12.445Z,15.30
2022-10-06T18:16:41.249Z,15.70
2022-10-06T18:19:08.801Z,15.60
2022-10-06T18:21:38.587Z,15.60
2022-10-06T18:24:21.310Z,15.50
2022-10-06T18:26:48.583Z,15.50
2022-10-06T18:29:16.060Z,15.50
2022-10-06T18:31:42.841Z,15.40
2022-10-06T18:36:56.738Z,15.30
2022-10-06T18:39:23.428Z,15.30
2022-10-06T18:41:51.161Z,15.30
2022-10-06T18:44:37.843Z,15.20
2022-10-06T18:47:23.350Z,15.20
2022-10-06T18:49:50.142Z,15.20
2022-10-06T18:52:17.567Z,15.20
2022-10-06T18:54:44.765Z,15.10
2022-10-06T18:57:11.823Z,15.10
2022-10-06T18:59:38.611Z,15.10
2022-10-06T19:02:05.725Z,15.10
2022-10-06T19:04:33.152Z,15.10
2022-10-06T19:06:59.960Z,15.00
2022-10-06T19:09:27.035Z,15.00
2022-10-06T19:11:56.016Z,14.90
2022-10-06T19:14:25.027Z,14.90
2022-10-06T19:16:52.953Z,14.90
2022-10-06T19:19:20.108Z,14.80
2022-10-06T19:21:48.967Z,14.80
2022-10-06T19:24:16.577Z,14.80
2022-10-06T19:26:45.938Z,14.70
2022-10-06T19:29:13.811Z,14.70
2022-10-06T19:31:41.796Z,14.70
2022-10-06T19:34:11.045Z,14.60
2022-10-06T19:36:38.470Z,14.60
2022-10-06T19:39:05.918Z,14.60
2022-10-06T19:41:51.329Z,14.50
2022-10-06T19:44:18.119Z,14.80
2022-10-06T19:46:44.698Z,14.50
2022-10-06T19:49:11.597Z,14.50
2022-10-06T19:51:41.778Z,14.50
2022-10-06T19:54:08.936Z,14.40
2022-10-06T19:56:35.663Z,14.40
2022-10-06T19:59:02.492Z,14.40
2022-10-06T20:01:29.211Z,14.40
2022-10-06T20:03:55.964Z,14.30
2022-10-06T20:06:26.569Z,14.30
2022-10-06T20:08:54.095Z,14.30
2022-10-06T20:11:21.298Z,14.30
2022-10-06T20:13:48.066Z,14.30
2022-10-06T20:16:17.205Z,14.20
2022-10-06T20:18:47.537Z,14.20
2022-10-06T20:21:16.451Z,14.20
2022-10-06T20:23:58.243Z,14.20
2022-10-06T20:26:26.465Z,14.20
2022-10-06T20:28:53.432Z,14.20
2022-10-06T20:31:25.622Z,14.20
2022-10-06T20:33:52.901Z,14.10
2022-10-06T20:36:19.778Z,14.10
2022-10-06T20:39:05.324Z,14.10
2022-10-06T20:41:32.243Z,14.10
2022-10-06T20:43:59.548Z,14.10
2022-10-06T20:46:28.461Z,14.00
2022-10-06T20:48:55.312Z,14.00
2022-10-06T20:51:25.540Z,14.00
2022-10-06T20:53:54.456Z,14.00
2022-10-06T20:56:21.362Z,14.00
2022-10-06T20:58:50.033Z,14.00
2022-10-06T21:01:17.531Z,13.90
2022-10-06T21:03:46.304Z,13.90
2022-10-06T21:06:14.482Z,13.90
2022-10-06T21:08:42.947Z,13.90
2022-10-06T21:11:09.999Z,13.90
2022-10-06T21:13:37.023Z,13.80
2022-10-06T21:16:04.091Z,13.80
2022-10-06T21:18:31.240Z,13.80
2022-10-06T21:21:00.600Z,13.80
2022-10-06T21:23:28.080Z,13.80
2022-10-06T21:25:55.667Z,13.80
2022-10-06T21:28:25.478Z,13.80
2022-10-06T21:30:53.722Z,13.80
2022-10-06T21:33:22.633Z,13.70
2022-10-06T21:35:58.854Z,13.70
2022-10-06T21:38:26.557Z,13.80
2022-10-06T21:40:54.110Z,13.70
2022-10-06T21:43:20.978Z,13.70
2022-10-06T21:45:53.834Z,13.70
2022-10-06T21:48:27.680Z,13.70
2022-10-06T21:50:54.527Z,13.70
2022-10-06T21:53:21.734Z,13.70
2022-10-06T21:55:48.561Z,13.70
2022-10-06T21:58:15.236Z,13.70
2022-10-06T22:00:41.932Z,13.60
2022-10-06T22:03:08.808Z,13.60
2022-10-06T22:05:35.529Z,13.60
2022-10-06T22:08:02.209Z,13.70
2022-10-06T22:10:28.906Z,13.60
2022-10-06T22:12:55.668Z,13.60
2022-10-06T22:15:22.441Z,13.60
2022-10-06T22:17:49.348Z,13.60
2022-10-06T22:20:16.007Z,13.60
2022-10-06T22:22:42.835Z,13.60
2022-10-06T22:25:09.541Z,13.60
2022-10-06T22:27:36.211Z,13.60
2022-10-06T22:30:02.986Z,13.60
2022-10-06T22:32:29.662Z,13.60
2022-10-06T22:34:56.537Z,13.60
2022-10-06T22:37:23.522Z,13.60
2022-10-06T22:39:50.121Z,13.60
2022-10-06T22:42:16.801Z,13.60
2022-10-06T22:44:43.448Z,13.60
2022-10-06T22:47:10.134Z,13.50
2022-10-06T22:49:36.683Z,13.50
2022-10-06T22:52:03.484Z,13.50
2022-10-06T22:54:30.370Z,13.50
2022-10-06T22:56:57.554Z,13.50
2022-10-06T22:59:24.248Z,13.50
2022-10-06T23:01:52.224Z,13.50
2022-10-06T23:04:19.018Z,13.40
2022-10-06T23:06:45.680Z,13.40
2022-10-06T23:09:12.440Z,13.40
2022-10-06T23:11:39.076Z,13.40
2022-10-06T23:14:05.919Z,13.40
2022-10-06T23:16:32.803Z,13.40
2022-10-06T23:18:59.795Z,13.60
2022-10-06T23:21:27.914Z,13.40
2022-10-06T23:23:55.580Z,13.40
2022-10-06T23:26:22.907Z,13.40
2022-10-06T23:28:56.460Z,13.30
2022-10-06T23:31:23.416Z,13.40
2022-10-06T23:33:50.150Z,13.30
2022-10-06T23:36:17.901Z,13.40
2022-10-06T23:38:45.499Z,13.30
2022-10-06T23:41:12.161Z,13.30
2022-10-06T23:43:38.915Z,13.30
2022-10-06T23:46:05.971Z,13.30
2022-10-06T23:48:32.929Z,13.30
2022-10-06T23:51:00.462Z,13.30
2022-10-06T23:53:27.348Z,13.30
2022-10-06T23:55:54.071Z,13.30
2022-10-06T23:58:21.398Z,13.30
